Terminal Aerodrome Forecast
Issued by NWS

Home | Current Version | Previous Version | Text Only | Print | Product List | Glossary On
Versions: 1 2 3 4 5 6 7 8 9 10 11 12 13 14 15 16 17 18 19 20 21
000
FTUS43 KDVN 150600 AAA
TAFBRL
TAF AMD
KBRL 150600Z 1506/1606 15012KT 3SM BR SCT005 OVC035
      TEMPO 1506/1508 2SM BR BKN005
     FM151000 16012KT 3SM -RA BR OVC012
     FM151700 14014KT 3SM -SHRA BR OVC020
     FM160000 14007KT 2SM -RA BR OVC007=

USA.gov is the U.S. government's official web portal to all federal, state and local government web resources and services.